Time;durP1;ratioP1;P1;durP2;ratioP2;P2;SDS_P1;SDS_P2;PMS_P1;PMS_P2;Temp;Humidity;BMP_temperature;BMP_pressure;BME280_temperature;BME280_humidity;BME280_pressure;Samples;Min_cycle;Max_cycle;Signal;HPM_P1;HPM_P2
2022/04/08 00:00:36;;;;;;;1.30;0.70;;;15.70;57.50;;;;;;5050935;28;20467;-59
2022/04/08 00:03:01;;;;;;;0.90;0.73;;;15.70;57.70;;;;;;5051187;28;20047;-57
2022/04/08 00:05:27;;;;;;;3.60;0.77;;;15.60;58.10;;;;;;5047719;28;20033;-57
2022/04/08 00:07:53;;;;;;;1.75;0.80;;;15.60;58.40;;;;;;5031638;28;20034;-56
2022/04/08 00:10:19;;;;;;;2.42;0.70;;;15.50;58.60;;;;;;5052731;28;20025;-57
2022/04/08 00:12:44;;;;;;;0.68;0.57;;;15.50;58.90;;;;;;5043285;28;20120;-59
2022/04/08 00:15:11;;;;;;;2.30;0.77;;;15.40;59.10;;;;;;5051719;28;20329;-58
2022/04/08 00:17:36;;;;;;;2.42;0.73;;;15.30;59.60;;;;;;5051288;28;20029;-57
2022/04/08 00:20:03;;;;;;;1.63;0.70;;;15.30;59.90;;;;;;5052114;28;20028;-58
2022/04/08 00:22:29;;;;;;;1.83;0.70;;;15.20;59.90;;;;;;5051519;28;20036;-58
2022/04/08 00:24:55;;;;;;;1.33;0.80;;;15.10;60.20;;;;;;5044501;28;20111;-59
2022/04/08 00:30:06;;;;;;;1.80;0.88;;;15.00;60.00;;;;;;5051990;28;20032;-58
2022/04/08 00:32:34;;;;;;;1.98;0.80;;;14.90;60.20;;;;;;5052881;28;20025;-57
2022/04/08 00:35:00;;;;;;;1.45;0.70;;;14.90;60.10;;;;;;5050845;28;20032;-57
2022/04/08 00:37:25;;;;;;;4.32;0.80;;;14.90;60.70;;;;;;5049393;28;20052;-58
2022/04/08 00:39:51;;;;;;;1.00;0.70;;;14.80;60.70;;;;;;5048929;28;20208;-61
2022/04/08 00:42:17;;;;;;;1.95;0.88;;;14.80;60.80;;;;;;5048478;28;20029;-58
2022/04/08 00:44:42;;;;;;;4.03;0.80;;;14.80;60.90;;;;;;5045756;28;20033;-55
2022/04/08 00:47:08;;;;;;;4.05;0.90;;;14.60;61.10;;;;;;5051378;28;20017;-57
2022/04/08 00:49:37;;;;;;;2.65;0.80;;;14.60;61.60;;;;;;5052703;28;20483;-57
2022/04/08 00:52:03;;;;;;;3.55;0.88;;;14.50;61.50;;;;;;5051366;28;20051;-57
2022/04/08 00:54:32;;;;;;;1.52;0.68;;;14.50;61.80;;;;;;5052809;28;20025;-56
2022/04/08 00:56:58;;;;;;;2.35;0.80;;;14.50;61.90;;;;;;5050772;28;20414;-55
2022/04/08 00:59:28;;;;;;;1.20;0.70;;;14.50;61.90;;;;;;5050943;28;20029;-55
2022/04/08 01:01:53;;;;;;;1.88;0.90;;;14.50;61.50;;;;;;5044059;28;20052;-55
2022/04/08 01:04:23;;;;;;;1.92;0.90;;;14.60;60.60;;;;;;5052491;28;20123;-55
2022/04/08 01:06:49;;;;;;;1.88;0.80;;;14.50;60.20;;;;;;5051499;28;20513;-56
2022/04/08 01:09:16;;;;;;;2.10;0.88;;;14.50;60.60;;;;;;5050309;28;20056;-56
2022/04/08 01:11:43;;;;;;;1.45;0.80;;;14.50;60.50;;;;;;5052399;28;20033;-56
2022/04/08 01:14:14;;;;;;;1.13;0.70;;;14.60;60.40;;;;;;5049567;28;20021;-56
2022/04/08 01:16:40;;;;;;;1.10;0.80;;;14.60;61.10;;;;;;5041937;28;20025;-58
2022/04/08 01:19:06;;;;;;;0.90;0.63;;;14.60;61.80;;;;;;5051960;28;20029;-58
2022/04/08 01:21:33;;;;;;;1.05;0.70;;;14.60;62.40;;;;;;5049723;28;20074;-58
2022/04/08 01:24:00;;;;;;;1.67;0.80;;;14.50;62.50;;;;;;5051535;28;20025;-55
2022/04/08 01:26:26;;;;;;;1.52;0.82;;;14.40;62.60;;;;;;5050245;28;20017;-59
2022/04/08 01:28:55;;;;;;;2.05;0.70;;;14.40;62.60;;;;;;5048968;28;20031;-58
2022/04/08 01:31:23;;;;;;;2.05;0.85;;;14.40;62.30;;;;;;5050937;28;20036;-59
2022/04/08 01:33:50;;;;;;;5.00;0.80;;;14.30;61.20;;;;;;5050559;28;20378;-57
2022/04/08 01:36:16;;;;;;;2.33;0.70;;;14.30;60.00;;;;;;5050272;28;20047;-56
2022/04/08 01:38:42;;;;;;;6.47;1.50;;;14.30;59.20;;;;;;5051284;28;20483;-54
2022/04/08 01:41:08;;;;;;;2.95;1.08;;;14.30;58.30;;;;;;5050318;28;20021;-55
2022/04/08 01:43:34;;;;;;;4.18;1.00;;;14.20;57.60;;;;;;5051607;28;20515;-54
2022/04/08 01:46:00;;;;;;;3.83;1.13;;;14.20;55.10;;;;;;5050812;28;20455;-56
2022/04/08 01:48:25;;;;;;;3.83;1.23;;;14.10;55.40;;;;;;5051563;28;20056;-54
2022/04/08 01:50:51;;;;;;;2.85;0.98;;;14.00;55.90;;;;;;5042272;28;20036;-57
2022/04/08 01:53:17;;;;;;;3.15;0.90;;;14.00;57.00;;;;;;5049991;28;20029;-53
2022/04/08 01:55:43;;;;;;;6.10;0.90;;;14.00;58.90;;;;;;5050260;28;20029;-57
2022/04/08 01:58:10;;;;;;;3.33;1.10;;;14.00;60.30;;;;;;5050930;28;20099;-54
2022/04/08 02:00:37;;;;;;;4.32;1.23;;;13.90;59.70;;;;;;5051801;28;20067;-55
2022/04/08 02:03:02;;;;;;;3.80;1.20;;;13.80;59.80;;;;;;5042073;28;20369;-52
2022/04/08 02:05:28;;;;;;;4.78;1.23;;;13.70;59.20;;;;;;5046093;28;20032;-53
2022/04/08 02:07:54;;;;;;;5.45;1.42;;;13.70;59.10;;;;;;5047951;28;20056;-56
2022/04/08 02:10:21;;;;;;;3.70;1.30;;;13.60;58.70;;;;;;5051456;28;20064;-54
2022/04/08 02:12:46;;;;;;;5.28;1.30;;;13.60;58.80;;;;;;5049408;28;20035;-57
2022/04/08 02:15:12;;;;;;;5.88;1.23;;;13.60;58.90;;;;;;5050240;28;20025;-56
2022/04/08 02:17:38;;;;;;;3.63;1.40;;;13.60;58.80;;;;;;5048022;28;20025;-55
2022/04/08 02:20:08;;;;;;;4.90;1.42;;;13.60;58.60;;;;;;5049542;28;20064;-57
2022/04/08 02:22:35;;;;;;;4.53;1.70;;;13.50;58.60;;;;;;5042224;28;20468;-52
2022/04/08 02:25:02;;;;;;;4.80;1.30;;;13.50;59.00;;;;;;5050717;28;20126;-58
2022/04/08 02:27:28;;;;;;;5.18;1.88;;;13.50;58.90;;;;;;5050638;28;20167;-56
2022/04/08 02:29:58;;;;;;;5.70;1.50;;;13.50;58.60;;;;;;5049646;28;20025;-61
2022/04/08 02:32:24;;;;;;;8.23;1.90;;;13.30;58.80;;;;;;5051336;28;20467;-54
2022/04/08 02:34:51;;;;;;;6.18;1.55;;;13.30;59.10;;;;;;5045065;28;20025;-56
2022/04/08 02:37:17;;;;;;;7.78;1.63;;;13.30;58.80;;;;;;5045975;28;20060;-56
2022/04/08 02:39:43;;;;;;;5.30;1.52;;;13.30;58.40;;;;;;5049560;28;20114;-56
2022/04/08 02:42:09;;;;;;;9.60;1.75;;;13.20;58.20;;;;;;5049360;28;20467;-56
2022/04/08 02:44:35;;;;;;;6.30;2.00;;;13.10;57.90;;;;;;5051015;28;20028;-58
2022/04/08 02:47:01;;;;;;;4.82;1.60;;;13.10;58.00;;;;;;5050464;28;20067;-57
2022/04/08 02:49:27;;;;;;;6.55;1.70;;;13.10;58.00;;;;;;5050752;28;20536;-57
2022/04/08 02:51:54;;;;;;;6.00;2.20;;;13.10;58.00;;;;;;5051273;28;20324;-57
2022/04/08 02:54:19;;;;;;;5.40;1.58;;;13.00;57.60;;;;;;5045713;28;20025;-57
2022/04/08 02:56:45;;;;;;;6.22;1.85;;;13.00;57.60;;;;;;5050895;28;20068;-58
2022/04/08 02:59:11;;;;;;;7.57;1.98;;;12.90;57.50;;;;;;5049285;28;20035;-57
2022/04/08 03:01:38;;;;;;;4.90;1.88;;;12.90;57.30;;;;;;5049299;28;20052;-56
2022/04/08 03:04:08;;;;;;;7.15;1.83;;;13.00;57.10;;;;;;5049743;28;20111;-58
2022/04/08 03:06:34;;;;;;;10.02;2.00;;;13.00;57.00;;;;;;5047164;28;20075;-57
2022/04/08 03:09:02;;;;;;;6.70;1.80;;;13.00;56.70;;;;;;5050316;28;20041;-57
2022/04/08 03:11:28;;;;;;;7.68;2.00;;;12.90;56.70;;;;;;5052726;28;20480;-56
2022/04/08 03:13:54;;;;;;;7.00;1.63;;;13.00;56.80;;;;;;5047583;28;20043;-54
2022/04/08 03:16:21;;;;;;;7.88;1.75;;;12.90;56.80;;;;;;5051856;28;20029;-57
2022/04/08 03:18:46;;;;;;;6.05;1.92;;;12.90;57.30;;;;;;5046117;28;20067;-57
2022/04/08 03:21:12;;;;;;;8.85;1.98;;;12.90;57.50;;;;;;5053703;28;20049;-58
2022/04/08 03:23:57;;;;;;;5.43;1.85;;;12.80;57.60;;;;;;5054876;28;20029;-57
2022/04/08 03:26:23;;;;;;;8.90;1.90;;;12.80;57.50;;;;;;5050147;28;20036;-56
2022/04/08 03:28:49;;;;;;;7.55;1.95;;;12.80;57.30;;;;;;5049976;28;20041;-56
2022/04/08 03:31:14;;;;;;;5.22;1.83;;;12.70;57.50;;;;;;5052486;28;20115;-56
2022/04/08 03:33:41;;;;;;;10.07;1.73;;;12.60;58.00;;;;;;5052515;28;20036;-57
2022/04/08 03:36:07;;;;;;;4.55;1.42;;;12.60;57.20;;;;;;5054065;28;20032;-55
2022/04/08 03:38:33;;;;;;;8.13;2.20;;;12.50;57.10;;;;;;5054031;28;20056;-57
2022/04/08 03:40:59;;;;;;;8.15;2.10;;;12.50;56.90;;;;;;5052438;28;20025;-56
2022/04/08 03:43:25;;;;;;;6.80;1.88;;;12.50;56.50;;;;;;5053146;28;20032;-56
2022/04/08 03:45:50;;;;;;;5.45;1.58;;;12.60;56.30;;;;;;5054502;28;20379;-56
2022/04/08 03:48:16;;;;;;;10.18;1.52;;;12.60;55.80;;;;;;5047757;28;20423;-54
2022/04/08 03:50:42;;;;;;;8.65;2.70;;;12.60;55.80;;;;;;5053929;28;20056;-57
2022/04/08 03:53:10;;;;;;;5.55;1.70;;;12.50;55.80;;;;;;5052403;28;20435;-57
2022/04/08 03:55:36;;;;;;;4.65;1.42;;;12.60;55.60;;;;;;5050894;28;20029;-57
2022/04/08 03:58:02;;;;;;;8.07;1.83;;;12.50;55.30;;;;;;5052914;28;20423;-56
2022/04/08 04:00:27;;;;;;;9.07;2.08;;;12.60;55.60;;;;;;5040551;28;20033;-57
2022/04/08 04:02:53;;;;;;;5.93;1.55;;;12.50;55.80;;;;;;5051374;28;20055;-58
2022/04/08 04:05:19;;;;;;;8.20;1.90;;;12.50;55.40;;;;;;5051453;28;20490;-56
2022/04/08 04:07:45;;;;;;;5.47;1.30;;;12.40;55.30;;;;;;5053743;28;20477;-52
2022/04/08 04:10:14;;;;;;;5.50;1.70;;;12.40;55.30;;;;;;5053227;28;20360;-55
2022/04/08 04:12:42;;;;;;;5.45;1.70;;;12.40;55.20;;;;;;5052080;28;20025;-55
2022/04/08 04:15:08;;;;;;;6.68;1.50;;;12.40;55.00;;;;;;5051916;28;20064;-57
2022/04/08 04:17:34;;;;;;;4.93;1.50;;;12.40;55.10;;;;;;5050527;28;20705;-54
2022/04/08 04:20:00;;;;;;;5.78;1.70;;;12.40;55.30;;;;;;5053275;28;20036;-56
2022/04/08 04:22:26;;;;;;;10.35;1.65;;;12.40;55.40;;;;;;5052959;28;20429;-53
2022/04/08 04:24:51;;;;;;;5.03;1.92;;;12.40;55.70;;;;;;5049804;28;20543;-54
2022/04/08 04:27:17;;;;;;;5.90;1.45;;;12.40;55.80;;;;;;5037826;28;20483;-56
2022/04/08 04:29:43;;;;;;;4.80;1.52;;;12.30;56.00;;;;;;5053002;28;20395;-57
2022/04/08 04:32:09;;;;;;;5.97;1.75;;;12.40;56.10;;;;;;5052760;28;20089;-54
2022/04/08 04:34:36;;;;;;;6.95;1.90;;;12.30;56.50;;;;;;5047578;28;20026;-57
2022/04/08 04:37:03;;;;;;;6.45;1.70;;;12.30;56.80;;;;;;5050906;28;20024;-57
2022/04/08 04:39:29;;;;;;;6.88;1.88;;;12.20;56.90;;;;;;5053062;28;20049;-59
2022/04/08 04:41:55;;;;;;;5.15;1.90;;;12.30;57.10;;;;;;5043925;28;20061;-59
2022/04/08 04:44:20;;;;;;;6.03;1.85;;;12.20;57.00;;;;;;5047380;28;20065;-55
2022/04/08 04:46:46;;;;;;;7.13;2.05;;;12.30;57.30;;;;;;5051763;28;20091;-57
2022/04/08 04:49:12;;;;;;;4.72;1.55;;;12.20;57.30;;;;;;5041520;28;20471;-57
2022/04/08 04:51:38;;;;;;;6.47;1.92;;;12.30;57.40;;;;;;5051503;28;20037;-56
2022/04/08 04:54:03;;;;;;;6.65;2.33;;;12.30;57.50;;;;;;5052035;28;20048;-53
2022/04/08 04:56:29;;;;;;;7.43;1.83;;;12.20;57.30;;;;;;5051437;28;20024;-58
2022/04/08 04:58:55;;;;;;;5.28;1.65;;;12.30;57.20;;;;;;5050784;28;20048;-58
2022/04/08 05:01:20;;;;;;;11.63;1.90;;;12.30;56.70;;;;;;5049690;28;20309;-58
2022/04/08 05:03:46;;;;;;;5.40;1.73;;;12.30;56.50;;;;;;5046725;28;20021;-56
2022/04/08 05:06:12;;;;;;;8.20;2.10;;;12.30;56.70;;;;;;5051381;28;20021;-57
2022/04/08 05:08:37;;;;;;;6.57;2.08;;;12.40;56.70;;;;;;5052451;28;20427;-58
2022/04/08 05:11:03;;;;;;;4.13;1.55;;;12.50;56.30;;;;;;5050676;28;20025;-52
2022/04/08 05:13:29;;;;;;;8.32;1.63;;;12.50;56.00;;;;;;5052318;28;20021;-57
2022/04/08 05:15:54;;;;;;;5.07;1.88;;;12.60;55.40;;;;;;5049629;28;20383;-57
2022/04/08 05:18:20;;;;;;;8.50;2.00;;;12.60;55.10;;;;;;5047796;28;21066;-58
2022/04/08 05:20:46;;;;;;;7.07;2.20;;;12.60;55.20;;;;;;5047518;28;20424;-57
2022/04/08 05:23:11;;;;;;;7.70;1.73;;;12.70;55.00;;;;;;5049737;28;20455;-49
2022/04/08 05:25:37;;;;;;;4.25;1.67;;;12.70;54.50;;;;;;5050930;28;20083;-55
2022/04/08 05:28:03;;;;;;;8.98;1.98;;;12.70;54.50;;;;;;5050042;28;20368;-54
2022/04/08 05:30:29;;;;;;;8.90;2.13;;;12.70;54.60;;;;;;5047189;28;20383;-54
2022/04/08 05:32:55;;;;;;;6.53;1.77;;;12.60;54.40;;;;;;5049754;28;20047;-51
2022/04/08 05:35:21;;;;;;;4.60;1.52;;;12.60;54.30;;;;;;5051124;28;20068;-55
2022/04/08 05:37:48;;;;;;;7.40;1.58;;;12.60;54.40;;;;;;5046225;28;20121;-54
2022/04/08 05:40:21;;;;;;;5.97;1.60;;;12.60;54.50;;;;;;5050040;28;20021;-53
2022/04/08 05:42:48;;;;;;;11.03;1.67;;;12.70;54.50;;;;;;5047326;28;20111;-54
2022/04/08 05:45:21;;;;;;;4.93;1.70;;;12.80;54.50;;;;;;5046136;28;20029;-56
2022/04/08 05:47:50;;;;;;;4.45;1.70;;;12.90;54.40;;;;;;5048139;28;20353;-54
2022/04/08 05:50:20;;;;;;;15.68;2.40;;;13.00;54.30;;;;;;5047408;28;20550;-56
2022/04/08 05:52:52;;;;;;;5.85;2.00;;;13.10;54.30;;;;;;5043395;28;20049;-50
2022/04/08 05:55:18;;;;;;;6.43;2.20;;;13.10;54.00;;;;;;5049034;28;20021;-53
2022/04/08 05:57:46;;;;;;;5.30;2.10;;;13.10;53.70;;;;;;5043140;28;20032;-54
2022/04/08 06:00:16;;;;;;;5.40;1.70;;;13.10;52.90;;;;;;5048895;28;20024;-55
2022/04/08 06:02:43;;;;;;;3.88;1.60;;;13.20;52.30;;;;;;5043300;28;20052;-54
2022/04/08 06:05:10;;;;;;;8.02;1.77;;;13.20;51.90;;;;;;5044079;28;20070;-52
2022/04/08 06:07:47;;;;;;;5.70;1.95;;;13.20;51.40;;;;;;5048076;28;20108;-56
2022/04/08 06:10:26;;;;;;;8.75;1.70;;;13.30;50.70;;;;;;5040441;28;20115;-57
2022/04/08 06:12:55;;;;;;;7.38;1.60;;;13.20;50.40;;;;;;5047942;28;20037;-54
2022/04/08 06:15:22;;;;;;;7.63;2.03;;;13.20;49.70;;;;;;5044824;28;20398;-56
2022/04/08 06:17:49;;;;;;;9.50;1.77;;;13.30;49.40;;;;;;5050563;28;20079;-56
2022/04/08 06:20:22;;;;;;;8.15;2.55;;;13.30;49.60;;;;;;5047079;28;20029;-57
2022/04/08 06:22:51;;;;;;;8.48;3.03;;;13.40;49.70;;;;;;5045678;28;20025;-56
2022/04/08 06:25:19;;;;;;;5.85;2.05;;;13.50;49.70;;;;;;5044297;28;20047;-53
2022/04/08 06:27:58;;;;;;;8.20;1.90;;;13.70;49.70;;;;;;5050096;28;20044;-53
2022/04/08 06:30:29;;;;;;;9.02;1.85;;;13.80;49.60;;;;;;5047338;28;20111;-55
2022/04/08 06:33:01;;;;;;;7.72;1.95;;;13.80;49.20;;;;;;5046423;28;20048;-54
2022/04/08 06:35:30;;;;;;;5.35;1.63;;;13.80;49.00;;;;;;5047953;28;20024;-56
2022/04/08 06:38:06;;;;;;;5.97;2.10;;;13.80;48.80;;;;;;5047648;28;20049;-57
2022/04/08 06:40:40;;;;;;;10.18;2.13;;;13.90;49.00;;;;;;5030222;28;20029;-55
2022/04/08 06:43:07;;;;;;;8.75;2.35;;;13.80;48.90;;;;;;5046678;28;20024;-57
2022/04/08 06:45:34;;;;;;;9.75;2.00;;;13.80;49.30;;;;;;5052261;28;20020;-53
2022/04/08 06:48:01;;;;;;;8.15;1.77;;;13.80;49.80;;;;;;5031301;28;20033;-59
2022/04/08 06:50:28;;;;;;;5.43;1.67;;;13.90;50.00;;;;;;5050543;28;20072;-55
2022/04/08 06:53:00;;;;;;;15.82;2.25;;;14.10;50.20;;;;;;5049759;28;20491;-58
2022/04/08 06:55:34;;;;;;;8.52;2.00;;;14.30;49.90;;;;;;5051544;28;20112;-57
2022/04/08 06:58:03;;;;;;;7.38;1.90;;;14.50;49.70;;;;;;5048020;28;20055;-59
2022/04/08 07:00:34;;;;;;;6.35;2.08;;;14.70;48.90;;;;;;5051997;28;20423;-54
2022/04/08 07:03:00;;;;;;;5.55;1.58;;;14.60;48.90;;;;;;5051393;28;20471;-53
2022/04/08 07:05:28;;;;;;;10.02;1.65;;;14.60;49.20;;;;;;5049977;28;20040;-56
2022/04/08 07:07:54;;;;;;;7.05;1.98;;;14.70;49.30;;;;;;5052529;28;20119;-55
2022/04/08 07:10:20;;;;;;;7.78;1.60;;;14.60;48.80;;;;;;5052494;28;20498;-52
2022/04/08 07:12:46;;;;;;;7.32;1.88;;;14.40;49.30;;;;;;5047978;28;20044;-54
2022/04/08 07:15:12;;;;;;;9.02;2.05;;;14.40;49.80;;;;;;5035200;28;20025;-54
2022/04/08 07:17:38;;;;;;;5.82;1.88;;;14.40;49.60;;;;;;5048787;28;20467;-59
2022/04/08 07:20:05;;;;;;;11.75;2.58;;;14.50;49.20;;;;;;5052187;28;20052;-60
2022/04/08 07:22:31;;;;;;;5.35;2.08;;;14.60;48.60;;;;;;5050909;28;20036;-57
2022/04/08 07:24:57;;;;;;;7.18;2.30;;;14.70;48.60;;;;;;5048589;28;20127;-52
2022/04/08 07:27:24;;;;;;;7.45;2.10;;;14.80;48.60;;;;;;5048039;28;20439;-57
2022/04/08 07:29:51;;;;;;;6.43;1.92;;;14.80;48.50;;;;;;5051649;28;20025;-60
2022/04/08 07:32:20;;;;;;;5.55;1.73;;;14.90;48.50;;;;;;5049331;28;20052;-59
2022/04/08 07:34:51;;;;;;;6.90;1.92;;;14.80;48.50;;;;;;5051355;28;20025;-55
2022/04/08 07:37:30;;;;;;;9.55;2.08;;;14.80;48.60;;;;;;5049505;28;20021;-57
2022/04/08 07:39:56;;;;;;;5.32;1.70;;;14.60;49.10;;;;;;5049881;28;20067;-57
2022/04/08 07:42:24;;;;;;;8.45;1.77;;;14.50;49.50;;;;;;5052694;28;20379;-62
2022/04/08 07:44:50;;;;;;;9.65;2.30;;;14.30;49.50;;;;;;5047744;28;20035;-61
2022/04/08 07:47:18;;;;;;;4.53;1.60;;;14.30;49.80;;;;;;5049071;28;20025;-57
2022/04/08 07:49:44;;;;;;;6.38;2.13;;;14.30;50.00;;;;;;5047291;28;20049;-59
2022/04/08 07:52:09;;;;;;;6.00;1.80;;;14.50;50.00;;;;;;5047364;28;20028;-60
2022/04/08 07:57:21;;;;;;;7.47;2.83;;;14.70;49.50;;;;;;5050274;28;20086;-57
2022/04/08 07:59:47;;;;;;;4.63;1.70;;;14.80;49.10;;;;;;5051521;28;20021;-61
2022/04/08 08:02:13;;;;;;;6.53;2.00;;;14.80;48.90;;;;;;5051001;28;20025;-58
2022/04/08 08:04:40;;;;;;;4.38;1.55;;;14.80;48.90;;;;;;5050563;28;20025;-58
2022/04/08 08:07:06;;;;;;;6.32;1.55;;;14.70;49.20;;;;;;5050588;28;20120;-60
2022/04/08 08:09:36;;;;;;;8.45;2.25;;;14.70;48.50;;;;;;5050384;28;20035;-60
2022/04/08 08:12:03;;;;;;;7.55;2.22;;;14.80;48.50;;;;;;5051249;28;20086;-61
2022/04/08 08:14:29;;;;;;;6.43;1.77;;;14.70;48.50;;;;;;5046926;28;20541;-60
2022/04/08 08:16:55;;;;;;;10.10;2.13;;;14.70;48.20;;;;;;5052725;28;20036;-60
2022/04/08 08:19:22;;;;;;;5.38;1.77;;;14.80;48.40;;;;;;5051908;28;20037;-57
2022/04/08 08:21:47;;;;;;;6.97;2.10;;;15.00;48.20;;;;;;5052055;28;20055;-60
2022/04/08 08:24:13;;;;;;;12.13;2.40;;;15.10;48.10;;;;;;5049681;28;20029;-60
2022/04/08 08:26:40;;;;;;;4.45;1.60;;;15.20;48.10;;;;;;5052254;28;20024;-60
2022/04/08 08:29:07;;;;;;;7.47;2.00;;;15.30;47.80;;;;;;5043227;28;20029;-57
2022/04/08 08:31:36;;;;;;;6.35;2.03;;;15.40;47.70;;;;;;5050522;28;20051;-61
2022/04/08 08:34:05;;;;;;;7.78;1.95;;;15.30;47.90;;;;;;5050599;28;20029;-59
2022/04/08 08:36:34;;;;;;;7.90;1.90;;;15.20;48.40;;;;;;5047347;28;20032;-59
2022/04/08 08:39:01;;;;;;;4.90;1.60;;;15.10;48.50;;;;;;5051490;28;20045;-57
2022/04/08 08:41:27;;;;;;;5.68;1.60;;;15.10;48.70;;;;;;5048210;28;20025;-59
2022/04/08 08:43:55;;;;;;;5.13;1.60;;;15.10;48.70;;;;;;5049225;28;20372;-60
2022/04/08 08:46:21;;;;;;;5.93;2.08;;;15.00;48.70;;;;;;5047090;28;20038;-57
2022/04/08 08:48:50;;;;;;;8.18;1.73;;;14.90;48.70;;;;;;5048112;28;20044;-59
2022/04/08 08:51:17;;;;;;;6.80;2.42;;;14.80;48.80;;;;;;5044385;28;20032;-58
2022/04/08 08:54:01;;;;;;;6.60;1.92;;;14.80;48.80;;;;;;5051709;28;20028;-62
2022/04/08 08:56:33;;;;;;;11.20;2.20;;;15.00;48.60;;;;;;5048584;28;20028;-58
2022/04/08 08:58:59;;;;;;;6.15;2.10;;;15.10;48.20;;;;;;5044640;28;20065;-61
2022/04/08 09:01:26;;;;;;;8.70;2.20;;;15.20;48.00;;;;;;5049603;28;20236;-59
2022/04/08 09:03:51;;;;;;;5.53;2.20;;;15.40;47.50;;;;;;5050029;28;20035;-61
2022/04/08 09:06:18;;;;;;;6.88;1.88;;;15.40;46.70;;;;;;5052482;28;20021;-58
2022/04/08 09:08:56;;;;;;;4.15;1.98;;;15.50;46.70;;;;;;5049253;28;20099;-62
2022/04/08 09:11:28;;;;;;;8.85;2.28;;;15.60;46.40;;;;;;5047314;28;20163;-59
2022/04/08 09:14:02;;;;;;;8.57;2.25;;;15.80;46.10;;;;;;5051167;28;20021;-58
2022/04/08 09:16:29;;;;;;;10.80;2.17;;;15.90;45.40;;;;;;5040350;28;20029;-62
2022/04/08 09:18:56;;;;;;;8.27;2.40;;;16.00;45.30;;;;;;5042683;28;20078;-62
2022/04/08 09:21:25;;;;;;;7.88;2.75;;;16.10;44.50;;;;;;5050118;28;20372;-58
2022/04/08 09:23:53;;;;;;;8.90;2.40;;;16.20;44.10;;;;;;5041185;28;20123;-60
2022/04/08 09:26:19;;;;;;;5.65;2.08;;;16.20;43.70;;;;;;5048150;28;20025;-61
2022/04/08 09:28:45;;;;;;;8.52;2.92;;;16.40;43.40;;;;;;5052816;28;20064;-63
2022/04/08 09:31:21;;;;;;;6.65;2.17;;;16.60;42.90;;;;;;5053644;28;20041;-60
2022/04/08 09:33:55;;;;;;;7.88;2.25;;;16.70;42.50;;;;;;5046351;28;20029;-60
2022/04/08 09:36:32;;;;;;;6.88;2.55;;;16.80;42.10;;;;;;5049160;28;20116;-59
2022/04/08 09:38:59;;;;;;;7.68;2.13;;;17.00;41.70;;;;;;5032196;28;20122;-59
2022/04/08 09:41:42;;;;;;;8.82;2.63;;;17.00;41.20;;;;;;5044888;28;20060;-66
2022/04/08 09:44:09;;;;;;;7.32;2.75;;;17.00;40.80;;;;;;5048225;28;20108;-60
2022/04/08 09:46:36;;;;;;;10.35;2.28;;;17.30;40.70;;;;;;5046565;28;20037;-62
2022/04/08 09:49:06;;;;;;;6.80;2.22;;;17.10;40.90;;;;;;5050034;28;20514;-59
2022/04/08 09:51:42;;;;;;;7.80;2.10;;;17.10;41.20;;;;;;5045398;28;20037;-61
2022/04/08 09:54:14;;;;;;;7.47;2.00;;;17.20;41.10;;;;;;5039064;28;20024;-63
2022/04/08 09:56:43;;;;;;;6.15;2.28;;;17.40;40.60;;;;;;5048722;28;20029;-57
2022/04/08 09:59:20;;;;;;;9.82;2.83;;;17.60;40.40;;;;;;5049798;28;20036;-60
2022/04/08 10:01:47;;;;;;;6.45;2.13;;;17.80;40.20;;;;;;5042301;28;20021;-62
2022/04/08 10:04:14;;;;;;;6.55;1.98;;;17.80;39.70;;;;;;5047195;28;20048;-60
2022/04/08 10:06:42;;;;;;;6.60;2.22;;;17.60;39.70;;;;;;5049536;28;20048;-59
2022/04/08 10:12:13;;;;;;;5.57;1.83;;;17.60;39.80;;;;;;5031581;28;20043;-57
2022/04/08 10:14:58;;;;;;;5.68;1.70;;;17.70;39.10;;;;;;5049331;28;20036;-59
2022/04/08 10:17:24;;;;;;;6.95;2.35;;;17.60;38.80;;;;;;5038052;28;20032;-60
2022/04/08 10:19:50;;;;;;;5.63;1.77;;;17.50;39.40;;;;;;5047664;28;20037;-56
2022/04/08 10:22:18;;;;;;;5.45;1.70;;;17.60;38.90;;;;;;5044146;28;20043;-61
2022/04/08 10:24:54;;;;;;;7.25;2.78;;;17.50;38.90;;;;;;5042468;28;20033;-63
2022/04/08 10:27:38;;;;;;;7.93;2.10;;;17.60;38.60;;;;;;5043728;28;20490;-61
2022/04/08 10:30:21;;;;;;;4.90;1.88;;;17.90;38.00;;;;;;5049024;28;20055;-61
2022/04/08 10:32:59;;;;;;;4.87;1.83;;;18.10;37.20;;;;;;5047632;28;20033;-63
2022/04/08 10:35:25;;;;;;;7.25;2.80;;;18.20;37.00;;;;;;5037516;28;20025;-62
2022/04/08 10:38:03;;;;;;;7.80;2.10;;;18.20;36.50;;;;;;5040146;28;20053;-58
2022/04/08 10:40:51;;;;;;;5.03;2.47;;;18.10;36.00;;;;;;5042696;28;20060;-56
2022/04/08 10:43:17;;;;;;;7.38;1.92;;;18.10;36.20;;;;;;5048669;28;20037;-58
2022/04/08 10:45:56;;;;;;;5.50;2.28;;;18.10;36.00;;;;;;5045728;28;20087;-57
2022/04/08 10:48:30;;;;;;;7.90;2.70;;;18.10;36.50;;;;;;5048222;28;20108;-58
2022/04/08 10:51:11;;;;;;;6.32;2.00;;;18.20;36.40;;;;;;5044065;28;20029;-58
2022/04/08 10:53:41;;;;;;;4.07;2.00;;;18.10;36.20;;;;;;5047272;28;20108;-63
2022/04/08 10:56:13;;;;;;;6.07;2.08;;;18.10;36.40;;;;;;5041078;28;20040;-53
2022/04/08 10:58:49;;;;;;;8.00;1.83;;;17.80;36.60;;;;;;5033500;28;20144;-59
2022/04/08 11:01:25;;;;;;;6.45;1.63;;;17.70;37.10;;;;;;5027567;28;20056;-58
2022/04/08 11:04:10;;;;;;;9.13;2.63;;;17.80;37.10;;;;;;5044597;28;20147;-58
2022/04/08 11:06:37;;;;;;;4.78;2.22;;;17.70;37.40;;;;;;5043355;28;20181;-57
2022/04/08 11:09:12;;;;;;;4.97;1.60;;;17.60;37.80;;;;;;5044624;28;20071;-60
2022/04/08 11:11:39;;;;;;;5.80;2.10;;;17.70;37.70;;;;;;5046629;28;20468;-61
2022/04/08 11:14:07;;;;;;;8.82;2.33;;;17.80;37.60;;;;;;5043424;28;20029;-60
2022/04/08 11:16:42;;;;;;;2.90;1.55;;;17.80;37.70;;;;;;5042147;28;20029;-61
2022/04/08 11:19:09;;;;;;;4.53;1.60;;;17.90;37.60;;;;;;5042637;28;20040;-61
2022/04/08 11:21:36;;;;;;;7.03;2.08;;;17.80;37.70;;;;;;5031180;28;20123;-62
2022/04/08 11:24:21;;;;;;;4.50;1.92;;;17.80;37.80;;;;;;5046945;28;20025;-62
2022/04/08 11:26:51;;;;;;;6.93;1.70;;;17.90;37.60;;;;;;5046247;28;20078;-63
2022/04/08 11:29:25;;;;;;;6.35;1.98;;;18.10;37.80;;;;;;5044967;28;20370;-60
2022/04/08 11:31:53;;;;;;;2.47;1.40;;;18.30;37.40;;;;;;5048573;28;20040;-57
2022/04/08 11:34:23;;;;;;;13.63;1.60;;;18.40;37.10;;;;;;5049922;28;20025;-56
2022/04/08 11:36:51;;;;;;;5.57;2.58;;;18.60;37.10;;;;;;5043833;28;20021;-57
2022/04/08 11:39:21;;;;;;;4.43;2.45;;;18.80;36.90;;;;;;5048069;28;20098;-58
2022/04/08 11:41:56;;;;;;;5.15;1.73;;;19.10;36.70;;;;;;5049749;28;20033;-54
2022/04/08 11:44:22;;;;;;;16.33;11.98;;;19.40;36.00;;;;;;5052892;28;20040;-60
2022/04/08 11:46:48;;;;;;;9.82;6.63;;;19.60;36.30;;;;;;5052234;28;20041;-61
2022/04/08 11:49:15;;;;;;;6.03;2.60;;;19.80;35.90;;;;;;5051554;28;20037;-65
2022/04/08 11:51:41;;;;;;;8.30;4.18;;;20.00;35.70;;;;;;5049173;28;20033;-58
2022/04/08 11:54:07;;;;;;;3.70;1.40;;;20.10;35.60;;;;;;5051935;28;20352;-58
2022/04/08 11:56:33;;;;;;;3.70;1.40;;;20.00;35.40;;;;;;5051253;28;20037;-59
2022/04/08 11:59:04;;;;;;;6.43;1.80;;;19.90;35.20;;;;;;5052183;28;20037;-60
2022/04/08 12:01:38;;;;;;;4.95;1.23;;;19.80;35.80;;;;;;5033661;28;20029;-59
2022/04/08 12:04:07;;;;;;;2.88;1.60;;;20.00;35.60;;;;;;5050060;28;20078;-60
2022/04/08 12:06:44;;;;;;;4.85;1.40;;;20.20;35.30;;;;;;5046775;28;20113;-60
2022/04/08 12:09:14;;;;;;;2.83;1.50;;;20.20;35.10;;;;;;5050096;28;20033;-60
2022/04/08 12:11:43;;;;;;;4.20;2.03;;;20.20;35.30;;;;;;5049406;28;20031;-59
2022/04/08 12:14:10;;;;;;;3.17;1.73;;;20.40;35.30;;;;;;5052642;28;20031;-60
2022/04/08 12:16:39;;;;;;;3.35;1.55;;;20.50;35.00;;;;;;5050985;28;20097;-60
2022/04/08 12:19:08;;;;;;;6.65;1.88;;;20.40;34.90;;;;;;5051998;28;20048;-61
2022/04/08 12:21:34;;;;;;;5.22;1.70;;;20.30;35.20;;;;;;5048898;28;20032;-59
2022/04/08 12:24:04;;;;;;;7.15;2.83;;;20.30;35.30;;;;;;5050285;28;20059;-60
2022/04/08 12:26:35;;;;;;;3.63;1.23;;;20.40;35.40;;;;;;5047082;28;20052;-56
2022/04/08 12:29:14;;;;;;;2.17;1.10;;;20.60;35.30;;;;;;5048939;28;20065;-59
2022/04/08 12:31:47;;;;;;;3.13;1.45;;;20.70;35.00;;;;;;5052386;28;20021;-61
2022/04/08 12:34:17;;;;;;;1.83;1.17;;;20.80;34.90;;;;;;5051587;28;20025;-65
2022/04/08 12:36:46;;;;;;;5.78;4.10;;;20.80;34.80;;;;;;5035002;28;20033;-61
2022/04/08 12:39:12;;;;;;;4.50;1.23;;;20.80;34.90;;;;;;5044887;28;20049;-62
2022/04/08 12:41:43;;;;;;;2.47;1.08;;;20.90;34.90;;;;;;5051532;28;20104;-60
2022/04/08 12:44:10;;;;;;;3.22;1.77;;;20.70;34.60;;;;;;5050846;28;20053;-60
2022/04/08 12:46:36;;;;;;;4.05;2.55;;;20.70;34.90;;;;;;5048450;28;20028;-63
2022/04/08 12:49:03;;;;;;;2.85;1.30;;;20.60;35.00;;;;;;5048989;28;20055;-60
2022/04/08 12:51:29;;;;;;;2.40;1.10;;;20.40;35.20;;;;;;5051466;28;20036;-61
2022/04/08 12:53:56;;;;;;;5.85;2.88;;;20.20;35.70;;;;;;5046321;28;20079;-61
2022/04/08 12:56:24;;;;;;;5.88;1.60;;;19.90;36.10;;;;;;5049484;28;20025;-61
2022/04/08 12:58:50;;;;;;;3.58;1.38;;;19.70;36.60;;;;;;5052123;28;20033;-60